sensor_id;sensor_type;location;lat;lon;timestamp;temperature;humidity
28548;DHT22;15750;49.600;8.746;2022-11-20T00:01:07;15.70;48.90
28548;DHT22;15750;49.600;8.746;2022-11-20T00:03:56;15.70;49.60
28548;DHT22;15750;49.600;8.746;2022-11-20T00:06:44;15.70;48.90
28548;DHT22;15750;49.600;8.746;2022-11-20T00:09:31;15.70;49.10
28548;DHT22;15750;49.600;8.746;2022-11-20T00:12:19;15.70;49.10
28548;DHT22;15750;49.600;8.746;2022-11-20T00:15:09;15.70;49.10
28548;DHT22;15750;49.600;8.746;2022-11-20T00:17:56;15.70;49.00
28548;DHT22;15750;49.600;8.746;2022-11-20T00:20:44;15.70;49.10
28548;DHT22;15750;49.600;8.746;2022-11-20T00:23:31;15.70;49.10
28548;DHT22;15750;49.600;8.746;2022-11-20T00:26:19;15.70;49.10
28548;DHT22;15750;49.600;8.746;2022-11-20T00:29:09;15.70;49.10
28548;DHT22;15750;49.600;8.746;2022-11-20T00:31:57;15.70;48.90
28548;DHT22;15750;49.600;8.746;2022-11-20T00:34:45;15.70;49.00
28548;DHT22;15750;49.600;8.746;2022-11-20T00:37:32;15.70;48.90
28548;DHT22;15750;49.600;8.746;2022-11-20T00:40:19;15.70;48.90
28548;DHT22;15750;49.600;8.746;2022-11-20T00:43:06;15.70;48.90
28548;DHT22;15750;49.600;8.746;2022-11-20T00:45:56;15.70;49.00
28548;DHT22;15750;49.600;8.746;2022-11-20T00:48:46;15.70;48.80
28548;DHT22;15750;49.600;8.746;2022-11-20T00:51:33;15.70;48.90
28548;DHT22;15750;49.600;8.746;2022-11-20T00:54:20;15.60;48.90
28548;DHT22;15750;49.600;8.746;2022-11-20T00:57:07;15.70;48.90
28548;DHT22;15750;49.600;8.746;2022-11-20T00:59:54;15.70;48.90
28548;DHT22;15750;49.600;8.746;2022-11-20T01:02:41;15.70;49.00
28548;DHT22;15750;49.600;8.746;2022-11-20T01:05:34;15.60;48.90
28548;DHT22;15750;49.600;8.746;2022-11-20T01:08:21;15.70;48.90
28548;DHT22;15750;49.600;8.746;2022-11-20T01:11:10;15.70;49.00
28548;DHT22;15750;49.600;8.746;2022-11-20T01:14:01;15.60;49.00
28548;DHT22;15750;49.600;8.746;2022-11-20T01:16:51;15.60;48.90
28548;DHT22;15750;49.600;8.746;2022-11-20T01:19:38;15.60;49.00
28548;DHT22;15750;49.600;8.746;2022-11-20T01:22:28;15.60;49.00
28548;DHT22;15750;49.600;8.746;2022-11-20T01:25:15;15.60;48.90
28548;DHT22;15750;49.600;8.746;2022-11-20T01:28:05;15.60;49.00
28548;DHT22;15750;49.600;8.746;2022-11-20T01:30:52;15.60;49.00
28548;DHT22;15750;49.600;8.746;2022-11-20T01:33:39;15.60;49.00
28548;DHT22;15750;49.600;8.746;2022-11-20T01:36:29;15.60;48.90
28548;DHT22;15750;49.600;8.746;2022-11-20T01:39:19;15.60;49.00
28548;DHT22;15750;49.600;8.746;2022-11-20T01:42:09;15.60;49.10
28548;DHT22;15750;49.600;8.746;2022-11-20T01:49:00;15.60;49.00
28548;DHT22;15750;49.600;8.746;2022-11-20T01:51:51;15.60;48.90
28548;DHT22;15750;49.600;8.746;2022-11-20T01:54:45;15.60;49.10
28548;DHT22;15750;49.600;8.746;2022-11-20T01:57:34;15.60;49.00
28548;DHT22;15750;49.600;8.746;2022-11-20T02:00:22;15.60;49.10
28548;DHT22;15750;49.600;8.746;2022-11-20T02:03:12;15.60;49.00
28548;DHT22;15750;49.600;8.746;2022-11-20T02:06:06;15.60;49.00
28548;DHT22;15750;49.600;8.746;2022-11-20T02:08:57;15.60;48.90
28548;DHT22;15750;49.600;8.746;2022-11-20T02:11:45;15.60;49.00
28548;DHT22;15750;49.600;8.746;2022-11-20T02:14:33;15.60;49.10
28548;DHT22;15750;49.600;8.746;2022-11-20T02:17:20;15.60;49.10
28548;DHT22;15750;49.600;8.746;2022-11-20T02:20:08;15.60;49.10
28548;DHT22;15750;49.600;8.746;2022-11-20T02:22:59;15.60;49.20
28548;DHT22;15750;49.600;8.746;2022-11-20T02:25:51;15.60;49.20
28548;DHT22;15750;49.600;8.746;2022-11-20T02:28:39;15.60;49.10
28548;DHT22;15750;49.600;8.746;2022-11-20T02:31:27;15.70;49.20
28548;DHT22;15750;49.600;8.746;2022-11-20T02:34:14;15.70;49.10
28548;DHT22;15750;49.600;8.746;2022-11-20T02:37:01;15.60;49.00
28548;DHT22;15750;49.600;8.746;2022-11-20T02:39:49;15.70;49.10
28548;DHT22;15750;49.600;8.746;2022-11-20T02:42:39;15.70;49.10
28548;DHT22;15750;49.600;8.746;2022-11-20T02:45:27;15.70;49.10
28548;DHT22;15750;49.600;8.746;2022-11-20T02:48:14;15.70;49.10
28548;DHT22;15750;49.600;8.746;2022-11-20T02:51:01;15.60;49.20
28548;DHT22;15750;49.600;8.746;2022-11-20T02:53:49;15.60;49.10
28548;DHT22;15750;49.600;8.746;2022-11-20T02:56:37;15.70;49.20
28548;DHT22;15750;49.600;8.746;2022-11-20T02:59:26;15.70;49.20
28548;DHT22;15750;49.600;8.746;2022-11-20T03:02:14;15.70;49.20
28548;DHT22;15750;49.600;8.746;2022-11-20T03:05:01;15.70;49.10
28548;DHT22;15750;49.600;8.746;2022-11-20T03:07:49;15.60;49.10
28548;DHT22;15750;49.600;8.746;2022-11-20T03:10:36;15.70;49.20
28548;DHT22;15750;49.600;8.746;2022-11-20T03:13:25;15.60;49.20
28548;DHT22;15750;49.600;8.746;2022-11-20T03:16:15;15.60;49.20
28548;DHT22;15750;49.600;8.746;2022-11-20T03:19:04;15.60;49.10
28548;DHT22;15750;49.600;8.746;2022-11-20T03:21:51;15.70;49.20
28548;DHT22;15750;49.600;8.746;2022-11-20T03:24:38;15.60;49.00
28548;DHT22;15750;49.600;8.746;2022-11-20T03:27:25;15.60;49.10
28548;DHT22;15750;49.600;8.746;2022-11-20T03:30:13;15.60;49.10
28548;DHT22;15750;49.600;8.746;2022-11-20T03:33:02;15.60;49.10
28548;DHT22;15750;49.600;8.746;2022-11-20T03:35:50;15.60;49.10
28548;DHT22;15750;49.600;8.746;2022-11-20T03:38:37;15.60;49.20
28548;DHT22;15750;49.600;8.746;2022-11-20T03:41:26;15.60;49.20
28548;DHT22;15750;49.600;8.746;2022-11-20T03:44:14;15.60;49.20
28548;DHT22;15750;49.600;8.746;2022-11-20T03:47:01;15.60;49.30
28548;DHT22;15750;49.600;8.746;2022-11-20T03:49:50;15.60;49.30
28548;DHT22;15750;49.600;8.746;2022-11-20T03:52:37;15.60;49.30
28548;DHT22;15750;49.600;8.746;2022-11-20T03:55:25;15.60;49.30
28548;DHT22;15750;49.600;8.746;2022-11-20T03:58:12;15.60;49.30
28548;DHT22;15750;49.600;8.746;2022-11-20T04:01:04;15.60;49.30
28548;DHT22;15750;49.600;8.746;2022-11-20T04:03:53;15.60;49.30
28548;DHT22;15750;49.600;8.746;2022-11-20T04:06:42;15.60;49.30
28548;DHT22;15750;49.600;8.746;2022-11-20T04:09:29;15.60;49.30
28548;DHT22;15750;49.600;8.746;2022-11-20T04:12:17;15.60;49.30
28548;DHT22;15750;49.600;8.746;2022-11-20T04:15:04;15.60;49.30
28548;DHT22;15750;49.600;8.746;2022-11-20T04:17:53;15.60;49.30
28548;DHT22;15750;49.600;8.746;2022-11-20T04:20:40;15.60;49.30
28548;DHT22;15750;49.600;8.746;2022-11-20T04:23:29;15.60;49.30
28548;DHT22;15750;49.600;8.746;2022-11-20T04:26:16;15.60;49.30
28548;DHT22;15750;49.600;8.746;2022-11-20T04:29:03;15.60;49.30
28548;DHT22;15750;49.600;8.746;2022-11-20T04:31:51;15.60;49.30
28548;DHT22;15750;49.600;8.746;2022-11-20T04:34:38;15.60;49.30
28548;DHT22;15750;49.600;8.746;2022-11-20T04:37:25;15.60;49.30
28548;DHT22;15750;49.600;8.746;2022-11-20T04:40:14;15.60;49.30
28548;DHT22;15750;49.600;8.746;2022-11-20T04:43:01;15.60;49.40
28548;DHT22;15750;49.600;8.746;2022-11-20T04:45:50;15.60;49.40
28548;DHT22;15750;49.600;8.746;2022-11-20T04:48:38;15.60;49.50
28548;DHT22;15750;49.600;8.746;2022-11-20T04:51:25;15.60;49.50
28548;DHT22;15750;49.600;8.746;2022-11-20T04:54:13;15.60;49.50
28548;DHT22;15750;49.600;8.746;2022-11-20T04:57:01;15.60;50.20
28548;DHT22;15750;49.600;8.746;2022-11-20T04:59:49;15.60;49.50
28548;DHT22;15750;49.600;8.746;2022-11-20T05:02:36;15.60;49.50
28548;DHT22;15750;49.600;8.746;2022-11-20T05:05:23;15.60;49.50
28548;DHT22;15750;49.600;8.746;2022-11-20T05:08:10;15.60;49.50
28548;DHT22;15750;49.600;8.746;2022-11-20T05:11:00;15.60;49.50
28548;DHT22;15750;49.600;8.746;2022-11-20T05:13:50;15.60;49.40
28548;DHT22;15750;49.600;8.746;2022-11-20T05:16:38;15.60;49.30
28548;DHT22;15750;49.600;8.746;2022-11-20T05:19:25;15.60;49.30
28548;DHT22;15750;49.600;8.746;2022-11-20T05:22:12;15.60;49.30
28548;DHT22;15750;49.600;8.746;2022-11-20T05:25:00;15.60;49.30
28548;DHT22;15750;49.600;8.746;2022-11-20T05:27:47;15.60;49.40
28548;DHT22;15750;49.600;8.746;2022-11-20T05:30:35;15.60;49.30
28548;DHT22;15750;49.600;8.746;2022-11-20T05:33:23;15.60;49.40
28548;DHT22;15750;49.600;8.746;2022-11-20T05:36:11;15.60;49.40
28548;DHT22;15750;49.600;8.746;2022-11-20T05:38:59;15.60;49.50
28548;DHT22;15750;49.600;8.746;2022-11-20T05:41:46;15.60;49.50
28548;DHT22;15750;49.600;8.746;2022-11-20T05:44:54;15.60;49.60
28548;DHT22;15750;49.600;8.746;2022-11-20T05:47:42;15.60;49.60
28548;DHT22;15750;49.600;8.746;2022-11-20T05:50:30;15.60;49.60
28548;DHT22;15750;49.600;8.746;2022-11-20T05:53:17;15.60;49.60
28548;DHT22;15750;49.600;8.746;2022-11-20T05:56:06;15.60;49.60
28548;DHT22;15750;49.600;8.746;2022-11-20T05:58:56;15.60;49.70
28548;DHT22;15750;49.600;8.746;2022-11-20T06:01:43;15.60;49.60
28548;DHT22;15750;49.600;8.746;2022-11-20T06:04:31;15.60;49.60
28548;DHT22;15750;49.600;8.746;2022-11-20T06:07:19;15.60;49.60
28548;DHT22;15750;49.600;8.746;2022-11-20T06:10:06;15.60;49.60
28548;DHT22;15750;49.600;8.746;2022-11-20T06:12:57;15.60;49.60
28548;DHT22;15750;49.600;8.746;2022-11-20T06:15:48;15.70;49.70
28548;DHT22;15750;49.600;8.746;2022-11-20T06:18:36;15.60;49.60
28548;DHT22;15750;49.600;8.746;2022-11-20T06:21:25;15.70;49.70
28548;DHT22;15750;49.600;8.746;2022-11-20T06:24:12;15.70;49.70
28548;DHT22;15750;49.600;8.746;2022-11-20T06:26:59;15.70;49.70
28548;DHT22;15750;49.600;8.746;2022-11-20T06:29:47;15.60;49.70
28548;DHT22;15750;49.600;8.746;2022-11-20T06:32:34;15.60;49.80
28548;DHT22;15750;49.600;8.746;2022-11-20T06:35:21;15.60;49.80
28548;DHT22;15750;49.600;8.746;2022-11-20T06:38:10;15.60;49.80
28548;DHT22;15750;49.600;8.746;2022-11-20T06:40:57;15.60;49.90
28548;DHT22;15750;49.600;8.746;2022-11-20T06:43:44;15.60;49.80
28548;DHT22;15750;49.600;8.746;2022-11-20T06:46:32;15.60;49.80
28548;DHT22;15750;49.600;8.746;2022-11-20T06:49:19;15.70;49.80
28548;DHT22;15750;49.600;8.746;2022-11-20T06:52:06;15.60;49.70
28548;DHT22;15750;49.600;8.746;2022-11-20T06:54:55;15.60;49.80
28548;DHT22;15750;49.600;8.746;2022-11-20T06:57:42;15.70;49.90
28548;DHT22;15750;49.600;8.746;2022-11-20T07:00:30;15.70;50.00
28548;DHT22;15750;49.600;8.746;2022-11-20T07:03:17;15.70;50.00
28548;DHT22;15750;49.600;8.746;2022-11-20T07:05:46;15.70;50.00
28548;DHT22;15750;49.600;8.746;2022-11-20T07:08:14;15.70;50.00
28548;DHT22;15750;49.600;8.746;2022-11-20T07:10:44;15.70;50.00
28548;DHT22;15750;49.600;8.746;2022-11-20T07:13:14;15.70;50.10
28548;DHT22;15750;49.600;8.746;2022-11-20T07:15:42;15.70;50.20
28548;DHT22;15750;49.600;8.746;2022-11-20T07:18:11;15.70;50.10
28548;DHT22;15750;49.600;8.746;2022-11-20T07:20:40;15.70;50.10
28548;DHT22;15750;49.600;8.746;2022-11-20T07:23:08;15.70;50.10
28548;DHT22;15750;49.600;8.746;2022-11-20T07:25:37;15.70;50.00
28548;DHT22;15750;49.600;8.746;2022-11-20T07:28:07;15.70;50.00
28548;DHT22;15750;49.600;8.746;2022-11-20T07:30:37;15.70;50.00
28548;DHT22;15750;49.600;8.746;2022-11-20T07:33:06;15.70;50.00
28548;DHT22;15750;49.600;8.746;2022-11-20T07:35:35;15.70;50.10
28548;DHT22;15750;49.600;8.746;2022-11-20T07:38:03;15.70;50.10
28548;DHT22;15750;49.600;8.746;2022-11-20T07:40:32;15.70;50.10
28548;DHT22;15750;49.600;8.746;2022-11-20T07:43:01;15.70;50.00
28548;DHT22;15750;49.600;8.746;2022-11-20T07:45:31;15.70;50.10
28548;DHT22;15750;49.600;8.746;2022-11-20T07:47:59;15.70;50.20
28548;DHT22;15750;49.600;8.746;2022-11-20T07:50:28;15.70;50.20
28548;DHT22;15750;49.600;8.746;2022-11-20T07:53:03;15.70;50.30
28548;DHT22;15750;49.600;8.746;2022-11-20T07:55:33;15.70;50.40
28548;DHT22;15750;49.600;8.746;2022-11-20T07:58:02;15.70;50.20
28548;DHT22;15750;49.600;8.746;2022-11-20T08:00:32;15.70;50.30
28548;DHT22;15750;49.600;8.746;2022-11-20T08:03:03;15.70;50.40
28548;DHT22;15750;49.600;8.746;2022-11-20T08:05:32;15.70;50.40
28548;DHT22;15750;49.600;8.746;2022-11-20T08:08:01;15.70;50.40
28548;DHT22;15750;49.600;8.746;2022-11-20T08:10:31;15.70;50.30
28548;DHT22;15750;49.600;8.746;2022-11-20T08:13:00;15.80;50.40
28548;DHT22;15750;49.600;8.746;2022-11-20T08:15:50;15.80;50.50
28548;DHT22;15750;49.600;8.746;2022-11-20T08:18:19;15.80;50.60
28548;DHT22;15750;49.600;8.746;2022-11-20T08:21:03;15.80;50.60
28548;DHT22;15750;49.600;8.746;2022-11-20T08:23:32;15.80;50.60
28548;DHT22;15750;49.600;8.746;2022-11-20T08:26:01;15.80;50.60
28548;DHT22;15750;49.600;8.746;2022-11-20T08:28:29;15.80;50.70
28548;DHT22;15750;49.600;8.746;2022-11-20T08:31:01;15.80;50.80
28548;DHT22;15750;49.600;8.746;2022-11-20T08:33:31;15.80;51.00
28548;DHT22;15750;49.600;8.746;2022-11-20T08:36:01;15.80;50.90
28548;DHT22;15750;49.600;8.746;2022-11-20T08:38:30;15.80;51.00
28548;DHT22;15750;49.600;8.746;2022-11-20T08:41:01;15.80;51.10
28548;DHT22;15750;49.600;8.746;2022-11-20T08:43:48;15.80;51.20
28548;DHT22;15750;49.600;8.746;2022-11-20T08:46:19;15.90;51.20
28548;DHT22;15750;49.600;8.746;2022-11-20T08:48:49;15.90;51.40
28548;DHT22;15750;49.600;8.746;2022-11-20T08:51:18;15.90;51.30
28548;DHT22;15750;49.600;8.746;2022-11-20T08:53:47;15.90;51.40
28548;DHT22;15750;49.600;8.746;2022-11-20T08:56:17;15.90;51.40
28548;DHT22;15750;49.600;8.746;2022-11-20T08:58:45;15.90;51.40
28548;DHT22;15750;49.600;8.746;2022-11-20T09:01:36;15.90;51.30
28548;DHT22;15750;49.600;8.746;2022-11-20T09:04:04;15.90;51.30
28548;DHT22;15750;49.600;8.746;2022-11-20T09:06:33;15.90;51.90
28548;DHT22;15750;49.600;8.746;2022-11-20T09:09:02;16.00;51.40
28548;DHT22;15750;49.600;8.746;2022-11-20T09:11:34;16.00;51.40
28548;DHT22;15750;49.600;8.746;2022-11-20T09:14:03;16.00;51.30
28548;DHT22;15750;49.600;8.746;2022-11-20T09:16:31;16.00;51.30
28548;DHT22;15750;49.600;8.746;2022-11-20T09:19:01;16.00;51.30
28548;DHT22;15750;49.600;8.746;2022-11-20T09:21:50;16.00;51.40
28548;DHT22;15750;49.600;8.746;2022-11-20T09:24:25;16.00;51.30
28548;DHT22;15750;49.600;8.746;2022-11-20T09:26:54;16.00;51.20
28548;DHT22;15750;49.600;8.746;2022-11-20T09:29:23;16.00;51.20
28548;DHT22;15750;49.600;8.746;2022-11-20T09:31:52;16.00;51.30
28548;DHT22;15750;49.600;8.746;2022-11-20T09:34:22;16.00;51.30
28548;DHT22;15750;49.600;8.746;2022-11-20T09:36:50;16.00;51.30
28548;DHT22;15750;49.600;8.746;2022-11-20T09:39:19;16.00;51.30
28548;DHT22;15750;49.600;8.746;2022-11-20T09:42:13;16.00;51.30
28548;DHT22;15750;49.600;8.746;2022-11-20T09:45:22;16.00;51.60
28548;DHT22;15750;49.600;8.746;2022-11-20T09:48:14;16.10;51.60
28548;DHT22;15750;49.600;8.746;2022-11-20T09:50:55;16.10;51.50
28548;DHT22;15750;49.600;8.746;2022-11-20T09:53:32;16.10;51.40
28548;DHT22;15750;49.600;8.746;2022-11-20T09:56:04;16.10;51.50
28548;DHT22;15750;49.600;8.746;2022-11-20T09:58:39;16.10;51.40
28548;DHT22;15750;49.600;8.746;2022-11-20T10:01:12;16.10;51.50
28548;DHT22;15750;49.600;8.746;2022-11-20T10:03:51;16.10;51.40
28548;DHT22;15750;49.600;8.746;2022-11-20T10:06:29;16.10;51.60
28548;DHT22;15750;49.600;8.746;2022-11-20T10:09:13;16.10;51.50
28548;DHT22;15750;49.600;8.746;2022-11-20T10:11:56;16.10;51.60
28548;DHT22;15750;49.600;8.746;2022-11-20T10:14:38;16.10;51.60
28548;DHT22;15750;49.600;8.746;2022-11-20T10:17:25;16.10;51.60
28548;DHT22;15750;49.600;8.746;2022-11-20T10:20:14;16.10;51.50
28548;DHT22;15750;49.600;8.746;2022-11-20T10:22:58;16.10;51.60
28548;DHT22;15750;49.600;8.746;2022-11-20T10:25:38;16.10;51.50
28548;DHT22;15750;49.600;8.746;2022-11-20T10:28:18;16.10;51.30
28548;DHT22;15750;49.600;8.746;2022-11-20T10:30:57;16.10;51.40
28548;DHT22;15750;49.600;8.746;2022-11-20T10:33:33;16.10;51.50
28548;DHT22;15750;49.600;8.746;2022-11-20T10:36:27;16.10;51.50
28548;DHT22;15750;49.600;8.746;2022-11-20T10:39:03;16.10;51.40
28548;DHT22;15750;49.600;8.746;2022-11-20T10:41:38;16.10;51.40
28548;DHT22;15750;49.600;8.746;2022-11-20T10:44:14;16.10;51.50
28548;DHT22;15750;49.600;8.746;2022-11-20T10:47:05;16.10;51.50
28548;DHT22;15750;49.600;8.746;2022-11-20T10:49:40;16.10;51.50
28548;DHT22;15750;49.600;8.746;2022-11-20T10:52:15;16.10;51.50
28548;DHT22;15750;49.600;8.746;2022-11-20T10:54:56;16.10;51.60
28548;DHT22;15750;49.600;8.746;2022-11-20T10:57:45;16.10;51.70
28548;DHT22;15750;49.600;8.746;2022-11-20T11:00:21;16.10;51.70
28548;DHT22;15750;49.600;8.746;2022-11-20T11:02:51;16.10;51.50
28548;DHT22;15750;49.600;8.746;2022-11-20T11:05:31;16.10;51.60
28548;DHT22;15750;49.600;8.746;2022-11-20T11:08:07;16.10;51.80
28548;DHT22;15750;49.600;8.746;2022-11-20T11:10:45;16.10;51.70
28548;DHT22;15750;49.600;8.746;2022-11-20T11:13:21;16.10;51.70
28548;DHT22;15750;49.600;8.746;2022-11-20T11:15:51;16.10;51.60
28548;DHT22;15750;49.600;8.746;2022-11-20T11:18:24;16.10;52.20
28548;DHT22;15750;49.600;8.746;2022-11-20T11:20:54;16.10;51.80
28548;DHT22;15750;49.600;8.746;2022-11-20T11:23:32;16.10;51.60
28548;DHT22;15750;49.600;8.746;2022-11-20T11:26:05;16.10;51.80
28548;DHT22;15750;49.600;8.746;2022-11-20T11:28:34;16.10;51.80
28548;DHT22;15750;49.600;8.746;2022-11-20T11:31:03;16.10;51.80
28548;DHT22;15750;49.600;8.746;2022-11-20T11:33:32;16.10;51.80
28548;DHT22;15750;49.600;8.746;2022-11-20T11:36:04;16.20;51.80
28548;DHT22;15750;49.600;8.746;2022-11-20T11:38:45;16.20;51.90
28548;DHT22;15750;49.600;8.746;2022-11-20T11:41:20;16.20;51.80
28548;DHT22;15750;49.600;8.746;2022-11-20T11:43:53;16.20;52.00
28548;DHT22;15750;49.600;8.746;2022-11-20T11:46:49;16.20;52.00
28548;DHT22;15750;49.600;8.746;2022-11-20T11:49:20;16.20;52.10
28548;DHT22;15750;49.600;8.746;2022-11-20T11:52:03;16.20;52.00
28548;DHT22;15750;49.600;8.746;2022-11-20T11:54:38;16.20;52.30
28548;DHT22;15750;49.600;8.746;2022-11-20T11:57:16;16.20;52.10
28548;DHT22;15750;49.600;8.746;2022-11-20T11:59:59;16.20;52.20
28548;DHT22;15750;49.600;8.746;2022-11-20T12:02:36;16.20;52.20
28548;DHT22;15750;49.600;8.746;2022-11-20T12:05:18;16.20;52.20
28548;DHT22;15750;49.600;8.746;2022-11-20T12:07:52;16.20;52.30
28548;DHT22;15750;49.600;8.746;2022-11-20T12:10:37;16.20;52.30
28548;DHT22;15750;49.600;8.746;2022-11-20T12:13:20;16.20;52.40
28548;DHT22;15750;49.600;8.746;2022-11-20T12:15:50;16.30;52.40
28548;DHT22;15750;49.600;8.746;2022-11-20T12:18:21;16.30;52.20
28548;DHT22;15750;49.600;8.746;2022-11-20T12:21:00;16.30;52.40
28548;DHT22;15750;49.600;8.746;2022-11-20T12:23:42;16.30;52.50
28548;DHT22;15750;49.600;8.746;2022-11-20T12:26:19;16.30;52.50
28548;DHT22;15750;49.600;8.746;2022-11-20T12:29:05;16.30;52.40
28548;DHT22;15750;49.600;8.746;2022-11-20T12:31:52;16.30;52.40
28548;DHT22;15750;49.600;8.746;2022-11-20T12:34:51;16.30;52.50
28548;DHT22;15750;49.600;8.746;2022-11-20T12:37:32;16.30;52.40
28548;DHT22;15750;49.600;8.746;2022-11-20T12:40:22;16.30;52.50
28548;DHT22;15750;49.600;8.746;2022-11-20T12:43:06;16.30;52.50
28548;DHT22;15750;49.600;8.746;2022-11-20T12:46:08;16.30;52.50
28548;DHT22;15750;49.600;8.746;2022-11-20T12:49:23;16.30;52.50
28548;DHT22;15750;49.600;8.746;2022-11-20T12:52:10;16.30;52.60
28548;DHT22;15750;49.600;8.746;2022-11-20T12:57:58;16.30;52.60
28548;DHT22;15750;49.600;8.746;2022-11-20T13:00:31;16.30;52.50
28548;DHT22;15750;49.600;8.746;2022-11-20T13:03:34;16.30;52.50
28548;DHT22;15750;49.600;8.746;2022-11-20T13:06:14;16.30;52.70
28548;DHT22;15750;49.600;8.746;2022-11-20T13:08:49;16.30;52.50
28548;DHT22;15750;49.600;8.746;2022-11-20T13:11:24;16.40;52.50
28548;DHT22;15750;49.600;8.746;2022-11-20T13:14:12;16.30;52.50
28548;DHT22;15750;49.600;8.746;2022-11-20T13:16:51;16.30;52.60
28548;DHT22;15750;49.600;8.746;2022-11-20T13:19:24;16.30;52.50
28548;DHT22;15750;49.600;8.746;2022-11-20T13:21:53;16.40;52.60
28548;DHT22;15750;49.600;8.746;2022-11-20T13:24:26;16.40;52.50
28548;DHT22;15750;49.600;8.746;2022-11-20T13:27:05;16.30;52.60
28548;DHT22;15750;49.600;8.746;2022-11-20T13:29:47;16.40;52.70
28548;DHT22;15750;49.600;8.746;2022-11-20T13:32:28;16.40;52.60
28548;DHT22;15750;49.600;8.746;2022-11-20T13:35:02;16.40;52.60
28548;DHT22;15750;49.600;8.746;2022-11-20T13:37:34;16.40;52.70
28548;DHT22;15750;49.600;8.746;2022-11-20T13:40:23;16.40;52.70
28548;DHT22;15750;49.600;8.746;2022-11-20T13:42:56;16.40;53.00
28548;DHT22;15750;49.600;8.746;2022-11-20T13:45:31;16.40;52.80
28548;DHT22;15750;49.600;8.746;2022-11-20T13:48:03;16.40;52.80
28548;DHT22;15750;49.600;8.746;2022-11-20T13:50:54;16.40;52.90
28548;DHT22;15750;49.600;8.746;2022-11-20T13:53:36;16.40;53.00
28548;DHT22;15750;49.600;8.746;2022-11-20T13:56:23;16.40;53.10
28548;DHT22;15750;49.600;8.746;2022-11-20T13:59:02;16.40;53.10
28548;DHT22;15750;49.600;8.746;2022-11-20T14:01:43;16.40;53.10
28548;DHT22;15750;49.600;8.746;2022-11-20T14:04:18;16.40;53.00
28548;DHT22;15750;49.600;8.746;2022-11-20T14:06:51;16.50;53.10
28548;DHT22;15750;49.600;8.746;2022-11-20T14:09:27;16.50;53.10
28548;DHT22;15750;49.600;8.746;2022-11-20T14:11:56;16.50;53.30
28548;DHT22;15750;49.600;8.746;2022-11-20T14:14:27;16.50;53.10
28548;DHT22;15750;49.600;8.746;2022-11-20T14:17:08;16.50;53.10
28548;DHT22;15750;49.600;8.746;2022-11-20T14:19:38;16.50;53.20
28548;DHT22;15750;49.600;8.746;2022-11-20T14:22:16;16.50;53.10
28548;DHT22;15750;49.600;8.746;2022-11-20T14:24:46;16.50;53.20
28548;DHT22;15750;49.600;8.746;2022-11-20T14:27:17;16.50;53.10
28548;DHT22;15750;49.600;8.746;2022-11-20T14:29:49;16.50;53.10
28548;DHT22;15750;49.600;8.746;2022-11-20T14:32:20;16.50;53.10
28548;DHT22;15750;49.600;8.746;2022-11-20T14:34:50;16.50;53.10
28548;DHT22;15750;49.600;8.746;2022-11-20T14:37:24;16.50;53.00
28548;DHT22;15750;49.600;8.746;2022-11-20T14:39:54;16.50;53.10
28548;DHT22;15750;49.600;8.746;2022-11-20T14:42:27;16.50;53.00
28548;DHT22;15750;49.600;8.746;2022-11-20T14:44:59;16.50;53.00
28548;DHT22;15750;49.600;8.746;2022-11-20T14:47:30;16.50;53.00
28548;DHT22;15750;49.600;8.746;2022-11-20T14:50:01;16.50;53.10
28548;DHT22;15750;49.600;8.746;2022-11-20T14:52:37;16.50;53.10
28548;DHT22;15750;49.600;8.746;2022-11-20T14:55:13;16.50;53.10
28548;DHT22;15750;49.600;8.746;2022-11-20T14:57:42;16.50;53.10
28548;DHT22;15750;49.600;8.746;2022-11-20T15:00:20;16.40;53.00
28548;DHT22;15750;49.600;8.746;2022-11-20T15:02:51;16.50;53.10
28548;DHT22;15750;49.600;8.746;2022-11-20T15:05:22;16.40;53.00
28548;DHT22;15750;49.600;8.746;2022-11-20T15:08:06;16.40;52.90
28548;DHT22;15750;49.600;8.746;2022-11-20T15:10:36;16.40;53.00
28548;DHT22;15750;49.600;8.746;2022-11-20T15:13:11;16.40;52.90
28548;DHT22;15750;49.600;8.746;2022-11-20T15:15:45;16.40;53.00
28548;DHT22;15750;49.600;8.746;2022-11-20T15:18:17;16.40;53.00
28548;DHT22;15750;49.600;8.746;2022-11-20T15:20:47;16.40;52.90
28548;DHT22;15750;49.600;8.746;2022-11-20T15:23:18;16.40;52.80
28548;DHT22;15750;49.600;8.746;2022-11-20T15:25:48;16.40;52.80
28548;DHT22;15750;49.600;8.746;2022-11-20T15:28:19;16.40;52.80
28548;DHT22;15750;49.600;8.746;2022-11-20T15:30:49;16.40;52.70
28548;DHT22;15750;49.600;8.746;2022-11-20T15:33:19;16.40;52.60
28548;DHT22;15750;49.600;8.746;2022-11-20T15:35:48;16.40;52.40
28548;DHT22;15750;49.600;8.746;2022-11-20T15:38:18;16.40;52.40
28548;DHT22;15750;49.600;8.746;2022-11-20T15:40:46;16.40;52.30
28548;DHT22;15750;49.600;8.746;2022-11-20T15:43:15;16.40;52.30
28548;DHT22;15750;49.600;8.746;2022-11-20T15:45:46;16.40;52.20
28548;DHT22;15750;49.600;8.746;2022-11-20T15:48:19;16.40;52.10
28548;DHT22;15750;49.600;8.746;2022-11-20T15:50:54;16.40;52.10
28548;DHT22;15750;49.600;8.746;2022-11-20T15:53:27;16.40;51.90
28548;DHT22;15750;49.600;8.746;2022-11-20T15:55:56;16.40;51.90
28548;DHT22;15750;49.600;8.746;2022-11-20T15:58:25;16.40;51.90
28548;DHT22;15750;49.600;8.746;2022-11-20T16:00:54;16.40;51.90
28548;DHT22;15750;49.600;8.746;2022-11-20T16:03:24;16.40;51.90
28548;DHT22;15750;49.600;8.746;2022-11-20T16:05:53;16.40;52.00
28548;DHT22;15750;49.600;8.746;2022-11-20T16:08:21;16.40;52.00
28548;DHT22;15750;49.600;8.746;2022-11-20T16:10:51;16.40;51.90
28548;DHT22;15750;49.600;8.746;2022-11-20T16:13:20;16.40;51.80
28548;DHT22;15750;49.600;8.746;2022-11-20T16:16:14;16.40;51.90
28548;DHT22;15750;49.600;8.746;2022-11-20T16:18:47;16.40;51.80
28548;DHT22;15750;49.600;8.746;2022-11-20T16:21:16;16.40;51.90
28548;DHT22;15750;49.600;8.746;2022-11-20T16:23:45;16.40;51.80
28548;DHT22;15750;49.600;8.746;2022-11-20T16:26:16;16.40;51.70
28548;DHT22;15750;49.600;8.746;2022-11-20T16:28:45;16.40;51.70
28548;DHT22;15750;49.600;8.746;2022-11-20T16:31:16;16.40;51.70
28548;DHT22;15750;49.600;8.746;2022-11-20T16:33:49;16.40;51.70
28548;DHT22;15750;49.600;8.746;2022-11-20T16:36:20;16.40;51.80
28548;DHT22;15750;49.600;8.746;2022-11-20T16:38:52;16.40;51.60
28548;DHT22;15750;49.600;8.746;2022-11-20T16:41:23;16.40;51.40
28548;DHT22;15750;49.600;8.746;2022-11-20T16:43:54;16.40;51.50
28548;DHT22;15750;49.600;8.746;2022-11-20T16:46:26;16.40;51.40
28548;DHT22;15750;49.600;8.746;2022-11-20T16:48:58;16.40;51.30
28548;DHT22;15750;49.600;8.746;2022-11-20T16:51:29;16.40;51.30
28548;DHT22;15750;49.600;8.746;2022-11-20T16:54:01;16.40;51.30
28548;DHT22;15750;49.600;8.746;2022-11-20T16:56:31;16.40;51.30
28548;DHT22;15750;49.600;8.746;2022-11-20T16:59:01;16.40;51.20